sensor_id;sensor_type;location;lat;lon;timestamp;temperature;humidity
22008;DHT22;11168;56.976;24.168;2024-01-07T00:02:00;-17.20;99.90
22008;DHT22;11168;56.976;24.168;2024-01-07T00:04:28;-17.10;99.90
22008;DHT22;11168;56.976;24.168;2024-01-07T00:06:55;-17.20;99.90
22008;DHT22;11168;56.976;24.168;2024-01-07T00:09:22;-17.30;99.90
22008;DHT22;11168;56.976;24.168;2024-01-07T00:11:49;-17.40;99.90
22008;DHT22;11168;56.976;24.168;2024-01-07T00:14:16;-17.40;99.90
22008;DHT22;11168;56.976;24.168;2024-01-07T00:16:44;-17.30;99.90
22008;DHT22;11168;56.976;24.168;2024-01-07T00:19:10;-17.30;99.90
22008;DHT22;11168;56.976;24.168;2024-01-07T00:21:38;-17.30;99.90
22008;DHT22;11168;56.976;24.168;2024-01-07T00:24:05;-17.30;99.90
22008;DHT22;11168;56.976;24.168;2024-01-07T00:26:32;-17.20;99.90
22008;DHT22;11168;56.976;24.168;2024-01-07T00:29:00;-17.30;99.90
22008;DHT22;11168;56.976;24.168;2024-01-07T00:31:27;-17.30;99.90
22008;DHT22;11168;56.976;24.168;2024-01-07T00:33:55;-17.40;99.90
22008;DHT22;11168;56.976;24.168;2024-01-07T00:36:22;-17.60;99.90
22008;DHT22;11168;56.976;24.168;2024-01-07T00:38:49;-17.60;99.90
22008;DHT22;11168;56.976;24.168;2024-01-07T00:41:16;-17.50;99.90
22008;DHT22;11168;56.976;24.168;2024-01-07T00:43:43;-17.50;99.90
22008;DHT22;11168;56.976;24.168;2024-01-07T00:46:10;-17.50;99.90
22008;DHT22;11168;56.976;24.168;2024-01-07T00:48:37;-17.60;99.90
22008;DHT22;11168;56.976;24.168;2024-01-07T00:51:05;-17.60;99.90
22008;DHT22;11168;56.976;24.168;2024-01-07T00:53:32;-17.60;99.90
22008;DHT22;11168;56.976;24.168;2024-01-07T00:56:01;-17.60;99.90
22008;DHT22;11168;56.976;24.168;2024-01-07T00:58:28;-17.70;99.90
22008;DHT22;11168;56.976;24.168;2024-01-07T01:00:55;-17.80;99.90
22008;DHT22;11168;56.976;24.168;2024-01-07T01:03:22;-17.80;99.90
22008;DHT22;11168;56.976;24.168;2024-01-07T01:05:50;-17.70;99.90
22008;DHT22;11168;56.976;24.168;2024-01-07T01:08:20;-17.80;99.90
22008;DHT22;11168;56.976;24.168;2024-01-07T01:10:47;-17.80;99.90
22008;DHT22;11168;56.976;24.168;2024-01-07T01:13:14;-17.70;99.90
22008;DHT22;11168;56.976;24.168;2024-01-07T01:15:41;-17.70;99.90
22008;DHT22;11168;56.976;24.168;2024-01-07T01:18:08;-17.80;99.90
22008;DHT22;11168;56.976;24.168;2024-01-07T01:20:35;-17.70;99.90
22008;DHT22;11168;56.976;24.168;2024-01-07T01:23:02;-17.70;99.90
22008;DHT22;11168;56.976;24.168;2024-01-07T01:25:29;-17.80;99.90
22008;DHT22;11168;56.976;24.168;2024-01-07T01:27:56;-17.90;99.90
22008;DHT22;11168;56.976;24.168;2024-01-07T01:30:24;-17.80;99.90
22008;DHT22;11168;56.976;24.168;2024-01-07T01:32:51;-17.80;99.90
22008;DHT22;11168;56.976;24.168;2024-01-07T01:35:18;-17.90;99.90
22008;DHT22;11168;56.976;24.168;2024-01-07T01:37:45;-18.00;99.90
22008;DHT22;11168;56.976;24.168;2024-01-07T01:40:12;-18.00;99.90
22008;DHT22;11168;56.976;24.168;2024-01-07T01:42:43;-18.00;99.90
22008;DHT22;11168;56.976;24.168;2024-01-07T01:45:11;-18.00;99.90
22008;DHT22;11168;56.976;24.168;2024-01-07T01:47:38;-18.10;99.90
22008;DHT22;11168;56.976;24.168;2024-01-07T01:50:07;-18.20;99.90
22008;DHT22;11168;56.976;24.168;2024-01-07T01:52:34;-18.10;99.90
22008;DHT22;11168;56.976;24.168;2024-01-07T01:55:03;-18.20;99.90
22008;DHT22;11168;56.976;24.168;2024-01-07T01:57:34;-18.30;99.90
22008;DHT22;11168;56.976;24.168;2024-01-07T02:00:03;-18.20;99.90
22008;DHT22;11168;56.976;24.168;2024-01-07T02:02:32;-18.20;99.90
22008;DHT22;11168;56.976;24.168;2024-01-07T02:05:03;-18.30;99.90
22008;DHT22;11168;56.976;24.168;2024-01-07T02:07:31;-18.20;99.90
22008;DHT22;11168;56.976;24.168;2024-01-07T02:10:00;-18.30;99.90
22008;DHT22;11168;56.976;24.168;2024-01-07T02:12:27;-18.30;99.90
22008;DHT22;11168;56.976;24.168;2024-01-07T02:14:56;-18.30;99.90
22008;DHT22;11168;56.976;24.168;2024-01-07T02:17:23;-18.40;99.90
22008;DHT22;11168;56.976;24.168;2024-01-07T02:19:50;-18.40;99.90
22008;DHT22;11168;56.976;24.168;2024-01-07T02:22:18;-18.50;99.90
22008;DHT22;11168;56.976;24.168;2024-01-07T02:24:46;-18.40;99.90
22008;DHT22;11168;56.976;24.168;2024-01-07T02:27:13;-18.40;99.90
22008;DHT22;11168;56.976;24.168;2024-01-07T02:29:41;-18.40;99.90
22008;DHT22;11168;56.976;24.168;2024-01-07T02:32:08;-18.40;99.90
22008;DHT22;11168;56.976;24.168;2024-01-07T02:34:35;-18.40;99.90
22008;DHT22;11168;56.976;24.168;2024-01-07T02:37:03;-18.30;99.90
22008;DHT22;11168;56.976;24.168;2024-01-07T02:39:30;-18.40;99.90
22008;DHT22;11168;56.976;24.168;2024-01-07T02:41:57;-18.30;99.90
22008;DHT22;11168;56.976;24.168;2024-01-07T02:44:24;-18.20;99.90
22008;DHT22;11168;56.976;24.168;2024-01-07T02:46:51;-18.30;99.90
22008;DHT22;11168;56.976;24.168;2024-01-07T02:49:19;-18.20;99.90
22008;DHT22;11168;56.976;24.168;2024-01-07T02:51:51;-18.30;99.90
22008;DHT22;11168;56.976;24.168;2024-01-07T02:54:19;-18.20;99.90
22008;DHT22;11168;56.976;24.168;2024-01-07T02:56:46;-18.20;99.90
22008;DHT22;11168;56.976;24.168;2024-01-07T02:59:13;-18.30;99.90
22008;DHT22;11168;56.976;24.168;2024-01-07T03:01:40;-18.30;99.90
22008;DHT22;11168;56.976;24.168;2024-01-07T03:04:11;-18.30;99.90
22008;DHT22;11168;56.976;24.168;2024-01-07T03:06:39;-18.30;99.90
22008;DHT22;11168;56.976;24.168;2024-01-07T03:09:10;-18.30;99.90
22008;DHT22;11168;56.976;24.168;2024-01-07T03:11:40;-18.40;99.90
22008;DHT22;11168;56.976;24.168;2024-01-07T03:14:11;-18.50;99.90
22008;DHT22;11168;56.976;24.168;2024-01-07T03:16:39;-18.60;99.90
22008;DHT22;11168;56.976;24.168;2024-01-07T03:19:06;-18.50;99.90
22008;DHT22;11168;56.976;24.168;2024-01-07T03:21:33;-18.40;99.90
22008;DHT22;11168;56.976;24.168;2024-01-07T03:24:00;-18.40;99.90
22008;DHT22;11168;56.976;24.168;2024-01-07T03:26:30;-18.50;99.90
22008;DHT22;11168;56.976;24.168;2024-01-07T03:28:59;-18.70;99.90
22008;DHT22;11168;56.976;24.168;2024-01-07T03:31:28;-18.70;99.90
22008;DHT22;11168;56.976;24.168;2024-01-07T03:33:55;-18.80;99.90
22008;DHT22;11168;56.976;24.168;2024-01-07T03:36:23;-18.80;99.90
22008;DHT22;11168;56.976;24.168;2024-01-07T03:38:50;-18.90;99.90
22008;DHT22;11168;56.976;24.168;2024-01-07T03:41:18;-18.90;99.90
22008;DHT22;11168;56.976;24.168;2024-01-07T03:43:48;-19.00;99.90
22008;DHT22;11168;56.976;24.168;2024-01-07T03:46:16;-19.00;99.90
22008;DHT22;11168;56.976;24.168;2024-01-07T03:48:44;-19.00;99.90
22008;DHT22;11168;56.976;24.168;2024-01-07T03:51:11;-18.90;99.90
22008;DHT22;11168;56.976;24.168;2024-01-07T03:53:38;-19.00;99.90
22008;DHT22;11168;56.976;24.168;2024-01-07T03:56:05;-18.90;99.90
22008;DHT22;11168;56.976;24.168;2024-01-07T03:58:32;-18.90;99.90
22008;DHT22;11168;56.976;24.168;2024-01-07T04:01:01;-18.90;99.90
22008;DHT22;11168;56.976;24.168;2024-01-07T04:03:28;-18.90;99.90
22008;DHT22;11168;56.976;24.168;2024-01-07T04:05:58;-19.00;99.90
22008;DHT22;11168;56.976;24.168;2024-01-07T04:08:25;-19.10;99.90
22008;DHT22;11168;56.976;24.168;2024-01-07T04:10:52;-18.90;99.90
22008;DHT22;11168;56.976;24.168;2024-01-07T04:13:19;-18.80;99.90
22008;DHT22;11168;56.976;24.168;2024-01-07T04:15:47;-18.90;99.90
22008;DHT22;11168;56.976;24.168;2024-01-07T04:18:14;-18.90;99.90
22008;DHT22;11168;56.976;24.168;2024-01-07T04:20:41;-18.80;99.90
22008;DHT22;11168;56.976;24.168;2024-01-07T04:23:11;-19.00;99.90
22008;DHT22;11168;56.976;24.168;2024-01-07T04:25:38;-18.90;99.90
22008;DHT22;11168;56.976;24.168;2024-01-07T04:28:07;-18.90;99.90
22008;DHT22;11168;56.976;24.168;2024-01-07T04:30:34;-19.00;99.90
22008;DHT22;11168;56.976;24.168;2024-01-07T04:33:02;-19.00;99.90
22008;DHT22;11168;56.976;24.168;2024-01-07T04:35:29;-18.90;99.90
22008;DHT22;11168;56.976;24.168;2024-01-07T04:37:56;-18.80;99.90
22008;DHT22;11168;56.976;24.168;2024-01-07T04:40:23;-18.80;99.90
22008;DHT22;11168;56.976;24.168;2024-01-07T04:42:50;-18.90;99.90
22008;DHT22;11168;56.976;24.168;2024-01-07T04:45:18;-19.00;99.90
22008;DHT22;11168;56.976;24.168;2024-01-07T04:47:44;-19.00;99.90
22008;DHT22;11168;56.976;24.168;2024-01-07T04:50:12;-19.00;99.90
22008;DHT22;11168;56.976;24.168;2024-01-07T04:52:41;-19.10;99.90
22008;DHT22;11168;56.976;24.168;2024-01-07T04:55:09;-19.20;99.90
22008;DHT22;11168;56.976;24.168;2024-01-07T04:57:36;-19.30;99.90
22008;DHT22;11168;56.976;24.168;2024-01-07T05:00:06;-19.40;99.90
22008;DHT22;11168;56.976;24.168;2024-01-07T05:02:33;-19.50;99.90
22008;DHT22;11168;56.976;24.168;2024-01-07T05:05:00;-19.40;99.90
22008;DHT22;11168;56.976;24.168;2024-01-07T05:07:27;-19.50;99.90
22008;DHT22;11168;56.976;24.168;2024-01-07T05:09:54;-19.40;99.90
22008;DHT22;11168;56.976;24.168;2024-01-07T05:12:21;-19.30;99.90
22008;DHT22;11168;56.976;24.168;2024-01-07T05:14:51;-19.30;99.90
22008;DHT22;11168;56.976;24.168;2024-01-07T05:17:18;-19.20;99.90
22008;DHT22;11168;56.976;24.168;2024-01-07T05:19:45;-19.20;99.90
22008;DHT22;11168;56.976;24.168;2024-01-07T05:22:12;-19.10;99.90
22008;DHT22;11168;56.976;24.168;2024-01-07T05:24:39;-19.10;99.90
22008;DHT22;11168;56.976;24.168;2024-01-07T05:27:07;-19.30;99.90
22008;DHT22;11168;56.976;24.168;2024-01-07T05:29:34;-19.30;99.90
22008;DHT22;11168;56.976;24.168;2024-01-07T05:32:01;-19.40;99.90
22008;DHT22;11168;56.976;24.168;2024-01-07T05:34:30;-19.40;99.90
22008;DHT22;11168;56.976;24.168;2024-01-07T05:36:57;-19.30;99.90
22008;DHT22;11168;56.976;24.168;2024-01-07T05:39:24;-19.40;99.90
22008;DHT22;11168;56.976;24.168;2024-01-07T05:41:51;-19.30;99.90
22008;DHT22;11168;56.976;24.168;2024-01-07T05:44:18;-19.30;99.90
22008;DHT22;11168;56.976;24.168;2024-01-07T05:46:45;-19.40;99.90
22008;DHT22;11168;56.976;24.168;2024-01-07T05:49:12;-19.30;99.90
22008;DHT22;11168;56.976;24.168;2024-01-07T05:51:40;-19.30;99.90
22008;DHT22;11168;56.976;24.168;2024-01-07T05:54:08;-19.30;99.90
22008;DHT22;11168;56.976;24.168;2024-01-07T05:56:41;-19.30;99.90
22008;DHT22;11168;56.976;24.168;2024-01-07T05:59:08;-19.30;99.90
22008;DHT22;11168;56.976;24.168;2024-01-07T06:01:36;-19.20;99.90
22008;DHT22;11168;56.976;24.168;2024-01-07T06:04:03;-19.10;99.90
22008;DHT22;11168;56.976;24.168;2024-01-07T06:06:31;-19.00;99.90
22008;DHT22;11168;56.976;24.168;2024-01-07T06:09:01;-19.10;99.90
22008;DHT22;11168;56.976;24.168;2024-01-07T06:11:30;-19.20;99.90
22008;DHT22;11168;56.976;24.168;2024-01-07T06:13:57;-19.30;99.90
22008;DHT22;11168;56.976;24.168;2024-01-07T06:16:24;-19.40;99.90
22008;DHT22;11168;56.976;24.168;2024-01-07T06:18:51;-19.40;99.90
22008;DHT22;11168;56.976;24.168;2024-01-07T06:21:18;-19.40;99.90
22008;DHT22;11168;56.976;24.168;2024-01-07T06:23:48;-19.40;99.90
22008;DHT22;11168;56.976;24.168;2024-01-07T06:26:15;-19.40;99.90
22008;DHT22;11168;56.976;24.168;2024-01-07T06:28:42;-19.40;99.90
22008;DHT22;11168;56.976;24.168;2024-01-07T06:31:10;-19.40;99.90
22008;DHT22;11168;56.976;24.168;2024-01-07T06:33:39;-19.40;99.90
22008;DHT22;11168;56.976;24.168;2024-01-07T06:36:07;-19.40;99.90
22008;DHT22;11168;56.976;24.168;2024-01-07T06:38:35;-19.30;99.90
22008;DHT22;11168;56.976;24.168;2024-01-07T06:41:02;-19.20;99.90
22008;DHT22;11168;56.976;24.168;2024-01-07T06:43:31;-19.20;99.90
22008;DHT22;11168;56.976;24.168;2024-01-07T06:45:59;-19.30;99.90
22008;DHT22;11168;56.976;24.168;2024-01-07T06:48:27;-19.30;99.90
22008;DHT22;11168;56.976;24.168;2024-01-07T06:50:54;-19.40;99.90
22008;DHT22;11168;56.976;24.168;2024-01-07T06:53:22;-19.50;99.90
22008;DHT22;11168;56.976;24.168;2024-01-07T06:55:49;-19.40;99.90
22008;DHT22;11168;56.976;24.168;2024-01-07T06:58:16;-19.40;99.90
22008;DHT22;11168;56.976;24.168;2024-01-07T07:00:44;-19.40;99.90
22008;DHT22;11168;56.976;24.168;2024-01-07T07:03:13;-19.40;99.90
22008;DHT22;11168;56.976;24.168;2024-01-07T07:05:40;-19.40;99.90
22008;DHT22;11168;56.976;24.168;2024-01-07T07:08:10;-19.50;99.90
22008;DHT22;11168;56.976;24.168;2024-01-07T07:10:37;-19.50;99.90
22008;DHT22;11168;56.976;24.168;2024-01-07T07:13:04;-19.60;99.90
22008;DHT22;11168;56.976;24.168;2024-01-07T07:15:31;-19.40;99.90
22008;DHT22;11168;56.976;24.168;2024-01-07T07:17:58;-19.40;99.90
22008;DHT22;11168;56.976;24.168;2024-01-07T07:20:26;-19.40;99.90
22008;DHT22;11168;56.976;24.168;2024-01-07T07:23:01;-19.40;99.90
22008;DHT22;11168;56.976;24.168;2024-01-07T07:25:28;-19.40;99.90
22008;DHT22;11168;56.976;24.168;2024-01-07T07:27:56;-19.40;99.90
22008;DHT22;11168;56.976;24.168;2024-01-07T07:30:23;-19.30;99.90
22008;DHT22;11168;56.976;24.168;2024-01-07T07:32:50;-19.40;99.90
22008;DHT22;11168;56.976;24.168;2024-01-07T07:35:18;-19.40;99.90
22008;DHT22;11168;56.976;24.168;2024-01-07T07:37:45;-19.40;99.90
22008;DHT22;11168;56.976;24.168;2024-01-07T07:40:13;-19.30;99.90
22008;DHT22;11168;56.976;24.168;2024-01-07T07:42:41;-19.30;99.90
22008;DHT22;11168;56.976;24.168;2024-01-07T07:45:08;-19.40;99.90
22008;DHT22;11168;56.976;24.168;2024-01-07T07:47:35;-19.40;99.90
22008;DHT22;11168;56.976;24.168;2024-01-07T07:50:02;-19.40;99.90
22008;DHT22;11168;56.976;24.168;2024-01-07T07:52:32;-19.50;99.90
22008;DHT22;11168;56.976;24.168;2024-01-07T07:55:00;-19.50;99.90
22008;DHT22;11168;56.976;24.168;2024-01-07T07:57:27;-19.50;99.90
22008;DHT22;11168;56.976;24.168;2024-01-07T07:59:55;-19.40;99.90
22008;DHT22;11168;56.976;24.168;2024-01-07T08:02:24;-19.40;99.90
22008;DHT22;11168;56.976;24.168;2024-01-07T08:04:51;-19.40;99.90
22008;DHT22;11168;56.976;24.168;2024-01-07T08:07:19;-19.40;99.90
22008;DHT22;11168;56.976;24.168;2024-01-07T08:09:46;-19.30;99.90
22008;DHT22;11168;56.976;24.168;2024-01-07T08:12:14;-18.80;99.90
22008;DHT22;11168;56.976;24.168;2024-01-07T08:14:41;-18.40;99.90
22008;DHT22;11168;56.976;24.168;2024-01-07T08:17:08;-17.80;99.90
22008;DHT22;11168;56.976;24.168;2024-01-07T08:19:36;-17.60;99.90
22008;DHT22;11168;56.976;24.168;2024-01-07T08:22:03;-17.30;99.90
22008;DHT22;11168;56.976;24.168;2024-01-07T08:24:31;-16.90;99.90
22008;DHT22;11168;56.976;24.168;2024-01-07T08:26:58;-16.50;99.90
22008;DHT22;11168;56.976;24.168;2024-01-07T08:29:26;-16.40;99.90
22008;DHT22;11168;56.976;24.168;2024-01-07T08:31:56;-16.10;99.90
22008;DHT22;11168;56.976;24.168;2024-01-07T08:34:25;-15.90;99.90
22008;DHT22;11168;56.976;24.168;2024-01-07T08:36:56;-15.90;99.90
22008;DHT22;11168;56.976;24.168;2024-01-07T08:39:23;-15.70;99.90
22008;DHT22;11168;56.976;24.168;2024-01-07T08:41:53;-15.40;99.90
22008;DHT22;11168;56.976;24.168;2024-01-07T08:44:22;-15.30;99.90
22008;DHT22;11168;56.976;24.168;2024-01-07T08:46:52;-15.30;99.90
22008;DHT22;11168;56.976;24.168;2024-01-07T08:49:22;-15.10;99.90
22008;DHT22;11168;56.976;24.168;2024-01-07T08:51:50;-15.20;99.90
22008;DHT22;11168;56.976;24.168;2024-01-07T08:54:22;-14.80;99.90
22008;DHT22;11168;56.976;24.168;2024-01-07T08:56:49;-14.70;99.90
22008;DHT22;11168;56.976;24.168;2024-01-07T08:59:18;-14.60;99.90
22008;DHT22;11168;56.976;24.168;2024-01-07T09:01:45;-14.10;99.90
22008;DHT22;11168;56.976;24.168;2024-01-07T09:04:13;-13.90;99.90
22008;DHT22;11168;56.976;24.168;2024-01-07T09:06:41;-14.10;99.90
22008;DHT22;11168;56.976;24.168;2024-01-07T09:09:08;-13.90;99.90
22008;DHT22;11168;56.976;24.168;2024-01-07T09:11:35;-13.50;99.90
22008;DHT22;11168;56.976;24.168;2024-01-07T09:14:03;-12.80;99.90
22008;DHT22;11168;56.976;24.168;2024-01-07T09:16:32;-12.20;99.90
22008;DHT22;11168;56.976;24.168;2024-01-07T09:19:00;-12.20;99.90
22008;DHT22;11168;56.976;24.168;2024-01-07T09:21:27;-11.70;99.90
22008;DHT22;11168;56.976;24.168;2024-01-07T09:23:54;-11.30;99.90
22008;DHT22;11168;56.976;24.168;2024-01-07T09:26:21;-10.60;99.90
22008;DHT22;11168;56.976;24.168;2024-01-07T09:28:48;-10.90;99.90
22008;DHT22;11168;56.976;24.168;2024-01-07T09:31:15;-11.50;99.90
22008;DHT22;11168;56.976;24.168;2024-01-07T09:33:42;-11.70;99.90
22008;DHT22;11168;56.976;24.168;2024-01-07T09:36:10;-12.30;99.90
22008;DHT22;11168;56.976;24.168;2024-01-07T09:38:54;-12.30;99.90
22008;DHT22;11168;56.976;24.168;2024-01-07T09:41:22;-11.90;99.90
22008;DHT22;11168;56.976;24.168;2024-01-07T09:43:51;-11.50;99.90
22008;DHT22;11168;56.976;24.168;2024-01-07T09:46:22;-11.80;99.90
22008;DHT22;11168;56.976;24.168;2024-01-07T09:48:50;-11.50;99.90
22008;DHT22;11168;56.976;24.168;2024-01-07T09:51:22;-11.60;99.90
22008;DHT22;11168;56.976;24.168;2024-01-07T09:53:53;-11.70;99.90
22008;DHT22;11168;56.976;24.168;2024-01-07T09:56:26;-12.40;99.90
22008;DHT22;11168;56.976;24.168;2024-01-07T09:58:56;-12.70;99.90
22008;DHT22;11168;56.976;24.168;2024-01-07T10:01:24;-12.80;99.90
22008;DHT22;11168;56.976;24.168;2024-01-07T10:03:53;-12.60;99.90
22008;DHT22;11168;56.976;24.168;2024-01-07T10:06:20;-12.10;99.90
22008;DHT22;11168;56.976;24.168;2024-01-07T10:08:48;-12.00;99.90
22008;DHT22;11168;56.976;24.168;2024-01-07T10:11:15;-12.00;99.90
22008;DHT22;11168;56.976;24.168;2024-01-07T10:13:45;-11.70;99.90
22008;DHT22;11168;56.976;24.168;2024-01-07T10:16:14;-11.70;99.90
22008;DHT22;11168;56.976;24.168;2024-01-07T10:18:42;-11.30;99.90
22008;DHT22;11168;56.976;24.168;2024-01-07T10:21:09;-11.20;99.90
22008;DHT22;11168;56.976;24.168;2024-01-07T10:23:36;-11.00;99.90
22008;DHT22;11168;56.976;24.168;2024-01-07T10:26:06;-10.40;99.90
22008;DHT22;11168;56.976;24.168;2024-01-07T10:28:49;-10.00;99.90
22008;DHT22;11168;56.976;24.168;2024-01-07T10:31:17;-10.30;99.90
22008;DHT22;11168;56.976;24.168;2024-01-07T10:33:44;-9.90;99.90
22008;DHT22;11168;56.976;24.168;2024-01-07T10:36:12;-9.70;99.90
22008;DHT22;11168;56.976;24.168;2024-01-07T10:38:40;-8.90;99.90
22008;DHT22;11168;56.976;24.168;2024-01-07T10:41:11;-9.40;99.90
22008;DHT22;11168;56.976;24.168;2024-01-07T10:43:39;-9.60;99.90
22008;DHT22;11168;56.976;24.168;2024-01-07T10:46:10;-10.00;99.90
22008;DHT22;11168;56.976;24.168;2024-01-07T10:48:55;-10.60;99.90
22008;DHT22;11168;56.976;24.168;2024-01-07T10:51:22;-10.80;99.90
22008;DHT22;11168;56.976;24.168;2024-01-07T10:53:52;-10.90;99.90
22008;DHT22;11168;56.976;24.168;2024-01-07T10:56:24;-10.80;99.90
22008;DHT22;11168;56.976;24.168;2024-01-07T10:58:54;-10.50;99.90
22008;DHT22;11168;56.976;24.168;2024-01-07T11:01:21;-10.60;99.90
22008;DHT22;11168;56.976;24.168;2024-01-07T11:04:00;-10.90;99.90
22008;DHT22;11168;56.976;24.168;2024-01-07T11:06:55;-10.40;99.90
22008;DHT22;11168;56.976;24.168;2024-01-07T11:12:00;-8.70;99.90
22008;DHT22;11168;56.976;24.168;2024-01-07T11:14:37;-8.70;99.90
22008;DHT22;11168;56.976;24.168;2024-01-07T11:17:07;-8.80;99.90
22008;DHT22;11168;56.976;24.168;2024-01-07T11:19:35;-8.50;99.90
22008;DHT22;11168;56.976;24.168;2024-01-07T11:22:22;-9.20;99.90
22008;DHT22;11168;56.976;24.168;2024-01-07T11:24:57;-9.70;99.90
22008;DHT22;11168;56.976;24.168;2024-01-07T11:27:28;-9.10;99.90
22008;DHT22;11168;56.976;24.168;2024-01-07T11:29:56;-8.90;99.90
22008;DHT22;11168;56.976;24.168;2024-01-07T11:32:30;-8.70;99.90
22008;DHT22;11168;56.976;24.168;2024-01-07T11:34:58;-8.50;99.90
22008;DHT22;11168;56.976;24.168;2024-01-07T11:37:26;-8.40;99.90
22008;DHT22;11168;56.976;24.168;2024-01-07T11:39:57;-8.40;99.90
22008;DHT22;11168;56.976;24.168;2024-01-07T11:42:25;-9.00;99.90
22008;DHT22;11168;56.976;24.168;2024-01-07T11:44:54;-9.80;99.90
22008;DHT22;11168;56.976;24.168;2024-01-07T11:47:22;-10.40;99.90
22008;DHT22;11168;56.976;24.168;2024-01-07T11:49:50;-11.10;99.90
22008;DHT22;11168;56.976;24.168;2024-01-07T11:52:18;-11.10;99.90
22008;DHT22;11168;56.976;24.168;2024-01-07T11:54:47;-10.60;99.90
22008;DHT22;11168;56.976;24.168;2024-01-07T11:57:17;-10.30;99.90
22008;DHT22;11168;56.976;24.168;2024-01-07T11:59:44;-10.60;99.90
22008;DHT22;11168;56.976;24.168;2024-01-07T12:02:11;-11.10;99.90
22008;DHT22;11168;56.976;24.168;2024-01-07T12:04:39;-11.70;99.90
22008;DHT22;11168;56.976;24.168;2024-01-07T12:07:06;-12.00;99.90
22008;DHT22;11168;56.976;24.168;2024-01-07T12:09:34;-12.00;99.90
22008;DHT22;11168;56.976;24.168;2024-01-07T12:12:02;-12.10;99.90
22008;DHT22;11168;56.976;24.168;2024-01-07T12:14:30;-12.40;99.90
22008;DHT22;11168;56.976;24.168;2024-01-07T12:17:01;-12.60;99.90
22008;DHT22;11168;56.976;24.168;2024-01-07T12:19:29;-12.70;99.90
22008;DHT22;11168;56.976;24.168;2024-01-07T12:22:04;-12.80;99.90
22008;DHT22;11168;56.976;24.168;2024-01-07T12:24:33;-12.70;99.90
22008;DHT22;11168;56.976;24.168;2024-01-07T12:27:06;-12.30;99.90
22008;DHT22;11168;56.976;24.168;2024-01-07T12:29:35;-12.20;99.90
22008;DHT22;11168;56.976;24.168;2024-01-07T12:32:02;-12.30;99.90
22008;DHT22;11168;56.976;24.168;2024-01-07T12:34:30;-12.50;99.90
22008;DHT22;11168;56.976;24.168;2024-01-07T12:36:58;-12.80;99.90
22008;DHT22;11168;56.976;24.168;2024-01-07T12:39:26;-13.00;99.90
22008;DHT22;11168;56.976;24.168;2024-01-07T12:41:54;-13.30;99.90
22008;DHT22;11168;56.976;24.168;2024-01-07T12:44:21;-13.40;99.90
22008;DHT22;11168;56.976;24.168;2024-01-07T12:46:54;-13.50;99.90
22008;DHT22;11168;56.976;24.168;2024-01-07T12:49:21;-13.60;99.90
22008;DHT22;11168;56.976;24.168;2024-01-07T12:51:49;-13.70;99.90
22008;DHT22;11168;56.976;24.168;2024-01-07T12:54:17;-13.80;99.90
22008;DHT22;11168;56.976;24.168;2024-01-07T12:56:44;-13.80;99.90
22008;DHT22;11168;56.976;24.168;2024-01-07T12:59:11;-13.90;99.90
22008;DHT22;11168;56.976;24.168;2024-01-07T13:01:38;-13.90;99.90
22008;DHT22;11168;56.976;24.168;2024-01-07T13:04:05;-13.80;99.90
22008;DHT22;11168;56.976;24.168;2024-01-07T13:06:32;-13.80;99.90
22008;DHT22;11168;56.976;24.168;2024-01-07T13:09:00;-13.90;99.90
22008;DHT22;11168;56.976;24.168;2024-01-07T13:11:31;-14.00;99.90
22008;DHT22;11168;56.976;24.168;2024-01-07T13:13:58;-13.90;99.90
22008;DHT22;11168;56.976;24.168;2024-01-07T13:16:27;-14.00;99.90
22008;DHT22;11168;56.976;24.168;2024-01-07T13:18:56;-14.30;99.90
22008;DHT22;11168;56.976;24.168;2024-01-07T13:21:23;-14.50;99.90
22008;DHT22;11168;56.976;24.168;2024-01-07T13:23:50;-14.70;99.90
22008;DHT22;11168;56.976;24.168;2024-01-07T13:26:18;-14.80;99.90
22008;DHT22;11168;56.976;24.168;2024-01-07T13:28:45;-14.90;99.90
22008;DHT22;11168;56.976;24.168;2024-01-07T13:31:12;-14.80;99.90
22008;DHT22;11168;56.976;24.168;2024-01-07T13:33:40;-14.90;99.90
22008;DHT22;11168;56.976;24.168;2024-01-07T13:36:08;-14.80;99.90
22008;DHT22;11168;56.976;24.168;2024-01-07T13:38:38;-14.90;99.90
22008;DHT22;11168;56.976;24.168;2024-01-07T13:41:12;-14.80;99.90
22008;DHT22;11168;56.976;24.168;2024-01-07T13:43:40;-14.90;99.90
22008;DHT22;11168;56.976;24.168;2024-01-07T13:46:08;-15.00;99.90
22008;DHT22;11168;56.976;24.168;2024-01-07T13:48:36;-14.90;99.90
22008;DHT22;11168;56.976;24.168;2024-01-07T13:51:06;-15.00;99.90
22008;DHT22;11168;56.976;24.168;2024-01-07T13:53:33;-14.90;99.90
22008;DHT22;11168;56.976;24.168;2024-01-07T13:56:00;-14.90;99.90
22008;DHT22;11168;56.976;24.168;2024-01-07T13:58:27;-14.90;99.90
22008;DHT22;11168;56.976;24.168;2024-01-07T14:00:55;-15.00;99.90
22008;DHT22;11168;56.976;24.168;2024-01-07T14:03:23;-15.00;99.90
22008;DHT22;11168;56.976;24.168;2024-01-07T14:05:51;-15.00;99.90
22008;DHT22;11168;56.976;24.168;2024-01-07T14:08:19;-15.10;99.90
22008;DHT22;11168;56.976;24.168;2024-01-07T14:10:46;-15.20;99.90
22008;DHT22;11168;56.976;24.168;2024-01-07T14:13:13;-15.00;99.90
22008;DHT22;11168;56.976;24.168;2024-01-07T14:15:42;-15.10;99.90
22008;DHT22;11168;56.976;24.168;2024-01-07T14:18:09;-15.20;99.90
22008;DHT22;11168;56.976;24.168;2024-01-07T14:20:37;-15.20;99.90
22008;DHT22;11168;56.976;24.168;2024-01-07T14:23:04;-15.20;99.90
22008;DHT22;11168;56.976;24.168;2024-01-07T14:25:31;-15.30;99.90
22008;DHT22;11168;56.976;24.168;2024-01-07T14:28:01;-15.40;99.90
22008;DHT22;11168;56.976;24.168;2024-01-07T14:30:28;-15.30;99.90
22008;DHT22;11168;56.976;24.168;2024-01-07T14:32:56;-15.40;99.90
22008;DHT22;11168;56.976;24.168;2024-01-07T14:35:25;-15.40;99.90
22008;DHT22;11168;56.976;24.168;2024-01-07T14:37:59;-15.50;99.90
22008;DHT22;11168;56.976;24.168;2024-01-07T14:40:28;-15.50;99.90
22008;DHT22;11168;56.976;24.168;2024-01-07T14:42:55;-15.50;99.90
22008;DHT22;11168;56.976;24.168;2024-01-07T14:45:26;-15.60;99.90
22008;DHT22;11168;56.976;24.168;2024-01-07T14:47:54;-15.60;99.90
22008;DHT22;11168;56.976;24.168;2024-01-07T14:50:21;-15.70;99.90
22008;DHT22;11168;56.976;24.168;2024-01-07T14:52:56;-15.80;99.90
22008;DHT22;11168;56.976;24.168;2024-01-07T14:55:23;-15.80;99.90
22008;DHT22;11168;56.976;24.168;2024-01-07T14:57:50;-15.70;99.90
22008;DHT22;11168;56.976;24.168;2024-01-07T15:00:19;-15.70;99.90
22008;DHT22;11168;56.976;24.168;2024-01-07T15:02:47;-15.80;99.90
22008;DHT22;11168;56.976;24.168;2024-01-07T15:05:14;-15.80;99.90
22008;DHT22;11168;56.976;24.168;2024-01-07T15:07:43;-15.90;99.90
22008;DHT22;11168;56.976;24.168;2024-01-07T15:10:17;-15.90;99.90
22008;DHT22;11168;56.976;24.168;2024-01-07T15:12:48;-15.90;99.90